Terminal Aerodrome Forecast
Issued by NWS

Home | Current Version | Previous Version | Text Only | Print | Product List | Glossary On
Versions: 1 2 3 4 5 6 7 8 9 10 11 12 13 14 15 16 17 18 19 20 21 22 23 24 25
861
FTUS41 KBTV 072328
TAFRUT
TAF
KRUT 072328Z 0800/0824 22005KT P6SM SCT120
     FM080200 24005KT P6SM SCT060
     FM081800 24009KT P6SM BKN035=

USA.gov is the U.S. government's official web portal to all federal, state and local government web resources and services.